CheckWX is a tool to help pilots better visualize weather data.  It is not intended as a substitute for an official pre-flight weather briefing.

07:41:08 UTC

CYWH METAR
Victoria Harbour Seaplane Base
Victoria, Canada
Current

3 hours ago

CYWH 240500Z 26022G33KT 6SM -SHRA FEW008 BKN017 07/04 A3020 RMK SF1SC7 CVCTV CLD EMBD LAST STFD OBS/NEXT 241400Z PRESRR SLP229
Observed
Feb-24 @ 05:00 UTC
Wind
  • 260° at 22 KTS
  • Gusting to 33 KTS
Visibility
6 SM
Flight Rules
MVFR
Conditions
Light Rain
Cloud Levels
  • Few at 800' AGL
  • Broken at 1,700' AGL
Temperature
C / 45°F
Dewpoint
C / 39°F
Humidity
81%
Altimeter
30.2" Hg
Pressure
1022.72 hPa
Previous

4 hours ago

CYWH 240400Z 25023G34KT 8SM -SHRA FEW008 BKN015 BKN075 07/05 A3014 RMK SF1SC5AC1 CVCTV CLD EMBD SLP209
Observed
Feb-24 @ 04:00 UTC
Wind
  • 250° at 23 KTS
  • Gusting to 34 KTS
Visibility
8 SM
Flight Rules
MVFR
Conditions
Light Rain
Cloud Levels
  • Few at 800' AGL
  • Broken at 1,500' AGL
  • Broken at 7,500' AGL
Temperature
C / 45°F
Dewpoint
C / 41°F
Humidity
87%
Altimeter
30.14" Hg
Pressure
1020.62 hPa
Previous

5 hours ago

CYWH 240300Z 26025G37KT 6SM -SHRA FEW008 BKN016 07/05 A3008 RMK SF1SC6 CVCTV CLD EMBD PRESRR SLP188
Observed
Feb-24 @ 03:00 UTC
Wind
  • 260° at 25 KTS
  • Gusting to 37 KTS
Visibility
6 SM
Flight Rules
MVFR
Conditions
Light Rain
Cloud Levels
  • Few at 800' AGL
  • Broken at 1,600' AGL
Temperature
C / 45°F
Dewpoint
C / 41°F
Humidity
87%
Altimeter
30.08" Hg
Pressure
1018.62 hPa